San Buenaventura, California
Current Conditions -  °F | °C
As of 1:51 AM on Saturday 25 Oct 2014 (Local Time) from KOXR Reporting Station
Scattered Clouds Scattered Clouds  
Wind Chill: 57°   Ceiling: Unl
Heat Index: 57°   Visibility: 10mi
Dew Point: 50°   Wind: 7mph
Humidity: 77%   Direction: 80°E
Pressure: 30"   Gusts: NA
Location:  34.2816°N, 119.223°W
Report Text: KOXR 250851Z AUTO 08006KT 10SM SCT009 14/10 A3000 RMK AO2 SLP158 T01390100 50001
Loading
Personal Weather Stations






























Interactive Weather Map
Tropical Storm Tracking
New forecast layout! Learn more

10-Day Weather Forecast

Advertisements
Track Severe Weather on mobile